sensor_id;sensor_type;location;lat;lon;timestamp;pressure;altitude;pressure_sealevel;temperature;humidity
20077;BME280;12348;42.710;23.378;2023-03-04T00:01:31;95162.38;;;5.20;100.00
20077;BME280;12348;42.710;23.378;2023-03-04T00:03:58;95179.47;;;5.19;100.00
20077;BME280;12348;42.710;23.378;2023-03-04T00:06:24;95175.53;;;5.27;100.00
20077;BME280;12348;42.710;23.378;2023-03-04T00:08:52;95176.97;;;5.45;100.00
20077;BME280;12348;42.710;23.378;2023-03-04T00:11:19;95175.13;;;5.45;100.00
20077;BME280;12348;42.710;23.378;2023-03-04T00:13:46;95173.81;;;5.48;100.00
20077;BME280;12348;42.710;23.378;2023-03-04T00:16:13;95174.09;;;5.51;100.00
20077;BME280;12348;42.710;23.378;2023-03-04T00:18:39;95169.34;;;5.58;100.00
20077;BME280;12348;42.710;23.378;2023-03-04T00:21:06;95178.59;;;5.46;100.00
20077;BME280;12348;42.710;23.378;2023-03-04T00:23:33;95174.59;;;5.48;100.00
20077;BME280;12348;42.710;23.378;2023-03-04T00:26:01;95164.22;;;5.52;100.00
20077;BME280;12348;42.710;23.378;2023-03-04T00:28:28;95165.00;;;5.47;100.00
20077;BME280;12348;42.710;23.378;2023-03-04T00:30:55;95158.63;;;5.53;100.00
20077;BME280;12348;42.710;23.378;2023-03-04T00:33:22;95158.56;;;5.48;100.00
20077;BME280;12348;42.710;23.378;2023-03-04T00:35:48;95157.78;;;5.48;100.00
20077;BME280;12348;42.710;23.378;2023-03-04T00:38:15;95149.97;;;5.41;100.00
20077;BME280;12348;42.710;23.378;2023-03-04T00:40:42;95149.44;;;5.34;100.00
20077;BME280;12348;42.710;23.378;2023-03-04T00:43:11;95153.59;;;5.25;100.00
20077;BME280;12348;42.710;23.378;2023-03-04T00:45:38;95151.16;;;5.18;100.00
20077;BME280;12348;42.710;23.378;2023-03-04T00:48:05;95150.31;;;5.13;100.00
20077;BME280;12348;42.710;23.378;2023-03-04T00:50:31;95146.56;;;5.08;100.00
20077;BME280;12348;42.710;23.378;2023-03-04T00:52:58;95149.75;;;5.10;100.00
20077;BME280;12348;42.710;23.378;2023-03-04T00:55:26;95146.59;;;5.14;100.00
20077;BME280;12348;42.710;23.378;2023-03-04T00:57:53;95143.91;;;5.14;100.00
20077;BME280;12348;42.710;23.378;2023-03-04T01:00:21;95141.47;;;5.44;100.00
20077;BME280;12348;42.710;23.378;2023-03-04T01:02:48;95139.53;;;5.34;100.00
20077;BME280;12348;42.710;23.378;2023-03-04T01:05:15;95145.88;;;5.23;100.00
20077;BME280;12348;42.710;23.378;2023-03-04T01:07:42;95146.31;;;5.15;100.00
20077;BME280;12348;42.710;23.378;2023-03-04T01:10:10;95150.56;;;5.11;100.00
20077;BME280;12348;42.710;23.378;2023-03-04T01:12:37;95153.50;;;5.09;100.00
20077;BME280;12348;42.710;23.378;2023-03-04T01:15:05;95162.56;;;5.08;100.00
20077;BME280;12348;42.710;23.378;2023-03-04T01:17:34;95147.06;;;5.05;100.00
20077;BME280;12348;42.710;23.378;2023-03-04T01:20:01;95145.47;;;5.09;100.00
20077;BME280;12348;42.710;23.378;2023-03-04T01:22:28;95140.13;;;5.04;100.00
20077;BME280;12348;42.710;23.378;2023-03-04T01:24:55;95128.09;;;5.07;100.00
20077;BME280;12348;42.710;23.378;2023-03-04T01:27:21;95134.81;;;5.09;100.00
20077;BME280;12348;42.710;23.378;2023-03-04T01:29:48;95137.22;;;5.11;100.00
20077;BME280;12348;42.710;23.378;2023-03-04T01:32:15;95134.25;;;5.07;100.00
20077;BME280;12348;42.710;23.378;2023-03-04T01:34:43;95134.25;;;5.07;100.00
20077;BME280;12348;42.710;23.378;2023-03-04T01:37:10;95130.78;;;5.07;100.00
20077;BME280;12348;42.710;23.378;2023-03-04T01:39:38;95134.50;;;5.06;100.00
20077;BME280;12348;42.710;23.378;2023-03-04T01:42:06;95126.81;;;5.09;100.00
20077;BME280;12348;42.710;23.378;2023-03-04T01:44:39;95123.06;;;5.10;100.00
20077;BME280;12348;42.710;23.378;2023-03-04T01:47:08;95115.31;;;5.09;100.00
20077;BME280;12348;42.710;23.378;2023-03-04T01:49:35;95110.75;;;5.04;100.00
20077;BME280;12348;42.710;23.378;2023-03-04T01:52:03;95109.63;;;5.00;100.00
20077;BME280;12348;42.710;23.378;2023-03-04T01:54:30;95106.09;;;4.90;100.00
20077;BME280;12348;42.710;23.378;2023-03-04T01:56:57;95106.31;;;4.83;100.00
20077;BME280;12348;42.710;23.378;2023-03-04T01:59:29;95108.97;;;4.83;100.00
20077;BME280;12348;42.710;23.378;2023-03-04T02:01:58;95111.03;;;4.76;100.00
20077;BME280;12348;42.710;23.378;2023-03-04T02:04:28;95111.84;;;4.76;100.00
20077;BME280;12348;42.710;23.378;2023-03-04T02:06:57;95100.50;;;4.91;100.00
20077;BME280;12348;42.710;23.378;2023-03-04T02:09:27;95098.16;;;5.00;100.00
20077;BME280;12348;42.710;23.378;2023-03-04T02:11:55;95104.75;;;4.87;100.00
20077;BME280;12348;42.710;23.378;2023-03-04T02:14:23;95098.59;;;4.86;100.00
20077;BME280;12348;42.710;23.378;2023-03-04T02:16:50;95101.47;;;4.80;100.00
20077;BME280;12348;42.710;23.378;2023-03-04T02:19:23;95100.91;;;4.78;100.00
20077;BME280;12348;42.710;23.378;2023-03-04T02:21:52;95101.16;;;4.71;100.00
20077;BME280;12348;42.710;23.378;2023-03-04T02:24:24;95102.94;;;4.66;100.00
20077;BME280;12348;42.710;23.378;2023-03-04T02:26:54;95098.63;;;4.59;100.00
20077;BME280;12348;42.710;23.378;2023-03-04T02:29:21;95103.09;;;4.54;100.00
20077;BME280;12348;42.710;23.378;2023-03-04T02:31:49;95107.28;;;4.45;100.00
20077;BME280;12348;42.710;23.378;2023-03-04T02:34:19;95102.19;;;4.43;100.00
20077;BME280;12348;42.710;23.378;2023-03-04T02:36:47;95108.81;;;4.41;100.00
20077;BME280;12348;42.710;23.378;2023-03-04T02:39:22;95101.69;;;4.46;100.00
20077;BME280;12348;42.710;23.378;2023-03-04T02:41:52;95099.78;;;4.42;100.00
20077;BME280;12348;42.710;23.378;2023-03-04T02:44:22;95095.50;;;4.41;100.00
20077;BME280;12348;42.710;23.378;2023-03-04T02:46:50;95098.91;;;4.36;100.00
20077;BME280;12348;42.710;23.378;2023-03-04T02:49:18;95093.84;;;4.34;100.00
20077;BME280;12348;42.710;23.378;2023-03-04T02:51:49;95088.22;;;4.31;100.00
20077;BME280;12348;42.710;23.378;2023-03-04T02:54:18;95094.53;;;4.25;100.00
20077;BME280;12348;42.710;23.378;2023-03-04T02:56:45;95094.72;;;4.18;100.00
20077;BME280;12348;42.710;23.378;2023-03-04T02:59:12;95096.53;;;4.12;100.00
20077;BME280;12348;42.710;23.378;2023-03-04T03:01:41;95093.53;;;4.04;100.00
20077;BME280;12348;42.710;23.378;2023-03-04T03:04:08;95088.69;;;4.01;100.00
20077;BME280;12348;42.710;23.378;2023-03-04T03:06:35;95084.66;;;3.98;100.00
20077;BME280;12348;42.710;23.378;2023-03-04T03:09:02;95090.75;;;3.94;100.00
20077;BME280;12348;42.710;23.378;2023-03-04T03:11:29;95093.41;;;3.94;100.00
20077;BME280;12348;42.710;23.378;2023-03-04T03:13:56;95085.69;;;3.92;100.00
20077;BME280;12348;42.710;23.378;2023-03-04T03:16:23;95091.97;;;3.86;100.00
20077;BME280;12348;42.710;23.378;2023-03-04T03:18:51;95092.91;;;3.75;100.00
20077;BME280;12348;42.710;23.378;2023-03-04T03:21:18;95090.06;;;3.81;100.00
20077;BME280;12348;42.710;23.378;2023-03-04T03:23:45;95092.28;;;3.68;100.00
20077;BME280;12348;42.710;23.378;2023-03-04T03:26:12;95094.38;;;3.65;100.00
20077;BME280;12348;42.710;23.378;2023-03-04T03:28:38;95093.34;;;3.67;100.00
20077;BME280;12348;42.710;23.378;2023-03-04T03:31:05;95089.56;;;3.62;100.00
20077;BME280;12348;42.710;23.378;2023-03-04T03:33:32;95092.41;;;3.56;100.00
20077;BME280;12348;42.710;23.378;2023-03-04T03:36:01;95090.81;;;3.55;100.00
20077;BME280;12348;42.710;23.378;2023-03-04T03:38:27;95086.75;;;3.52;100.00
20077;BME280;12348;42.710;23.378;2023-03-04T03:40:54;95081.97;;;3.54;100.00
20077;BME280;12348;42.710;23.378;2023-03-04T03:43:21;95082.41;;;3.46;100.00
20077;BME280;12348;42.710;23.378;2023-03-04T03:45:48;95085.03;;;3.41;100.00
20077;BME280;12348;42.710;23.378;2023-03-04T03:48:17;95082.28;;;3.36;100.00
20077;BME280;12348;42.710;23.378;2023-03-04T03:50:44;95085.75;;;3.36;100.00
20077;BME280;12348;42.710;23.378;2023-03-04T03:53:12;95085.19;;;3.34;100.00
20077;BME280;12348;42.710;23.378;2023-03-04T03:55:39;95080.03;;;3.28;100.00
20077;BME280;12348;42.710;23.378;2023-03-04T03:58:05;95080.03;;;3.28;100.00
20077;BME280;12348;42.710;23.378;2023-03-04T04:00:32;95080.19;;;3.21;100.00
20077;BME280;12348;42.710;23.378;2023-03-04T04:02:59;95068.69;;;3.15;100.00
20077;BME280;12348;42.710;23.378;2023-03-04T04:05:26;95071.81;;;3.29;100.00
20077;BME280;12348;42.710;23.378;2023-03-04T04:07:53;95066.34;;;3.19;100.00
20077;BME280;12348;42.710;23.378;2023-03-04T04:10:22;95069.72;;;3.31;100.00
20077;BME280;12348;42.710;23.378;2023-03-04T04:12:50;95068.28;;;3.24;100.00
20077;BME280;12348;42.710;23.378;2023-03-04T04:15:17;95063.94;;;3.18;100.00
20077;BME280;12348;42.710;23.378;2023-03-04T04:17:44;95066.66;;;3.23;100.00
20077;BME280;12348;42.710;23.378;2023-03-04T04:20:11;95065.56;;;3.19;100.00
20077;BME280;12348;42.710;23.378;2023-03-04T04:22:37;95065.47;;;3.13;100.00
20077;BME280;12348;42.710;23.378;2023-03-04T04:25:07;95068.69;;;3.15;100.00
20077;BME280;12348;42.710;23.378;2023-03-04T04:27:36;95059.59;;;3.11;100.00
20077;BME280;12348;42.710;23.378;2023-03-04T04:30:04;95072.00;;;3.06;100.00
20077;BME280;12348;42.710;23.378;2023-03-04T04:32:31;95062.69;;;3.03;100.00
20077;BME280;12348;42.710;23.378;2023-03-04T04:34:58;95059.81;;;3.10;100.00
20077;BME280;12348;42.710;23.378;2023-03-04T04:37:25;95064.84;;;3.45;100.00
20077;BME280;12348;42.710;23.378;2023-03-04T04:39:52;95068.00;;;3.42;100.00
20077;BME280;12348;42.710;23.378;2023-03-04T04:42:20;95066.84;;;3.55;100.00
20077;BME280;12348;42.710;23.378;2023-03-04T04:44:48;95064.28;;;3.43;100.00
20077;BME280;12348;42.710;23.378;2023-03-04T04:47:14;95073.59;;;3.24;100.00
20077;BME280;12348;42.710;23.378;2023-03-04T04:49:41;95073.06;;;3.22;100.00
20077;BME280;12348;42.710;23.378;2023-03-04T04:52:10;95070.72;;;3.25;100.00
20077;BME280;12348;42.710;23.378;2023-03-04T04:54:37;95069.72;;;3.31;100.00
20077;BME280;12348;42.710;23.378;2023-03-04T04:57:04;95071.72;;;3.41;100.00
20077;BME280;12348;42.710;23.378;2023-03-04T04:59:31;95073.88;;;3.44;100.00
20077;BME280;12348;42.710;23.378;2023-03-04T05:01:59;95078.47;;;3.49;100.00
20077;BME280;12348;42.710;23.378;2023-03-04T05:04:26;95077.97;;;3.52;100.00
20077;BME280;12348;42.710;23.378;2023-03-04T05:06:52;95082.06;;;3.59;100.00
20077;BME280;12348;42.710;23.378;2023-03-04T05:09:21;95079.03;;;3.95;100.00
20077;BME280;12348;42.710;23.378;2023-03-04T05:11:48;95087.91;;;4.00;100.00
20077;BME280;12348;42.710;23.378;2023-03-04T05:14:15;95096.53;;;4.12;100.00
20077;BME280;12348;42.710;23.378;2023-03-04T05:16:42;95095.50;;;4.13;100.00
20077;BME280;12348;42.710;23.378;2023-03-04T05:19:11;95098.94;;;4.14;100.00
20077;BME280;12348;42.710;23.378;2023-03-04T05:21:38;95098.94;;;4.14;100.00
20077;BME280;12348;42.710;23.378;2023-03-04T05:24:05;95099.06;;;4.24;100.00
20077;BME280;12348;42.710;23.378;2023-03-04T05:26:34;95100.75;;;4.30;100.00
20077;BME280;12348;42.710;23.378;2023-03-04T05:29:00;95096.81;;;4.38;100.00
20077;BME280;12348;42.710;23.378;2023-03-04T05:31:27;95104.06;;;4.43;100.00
20077;BME280;12348;42.710;23.378;2023-03-04T05:33:55;95107.53;;;4.43;100.00
20077;BME280;12348;42.710;23.378;2023-03-04T05:36:25;95103.22;;;4.37;100.00
20077;BME280;12348;42.710;23.378;2023-03-04T05:38:52;95121.88;;;4.37;100.00
20077;BME280;12348;42.710;23.378;2023-03-04T05:41:19;95112.44;;;4.29;100.00
20077;BME280;12348;42.710;23.378;2023-03-04T05:43:47;95116.25;;;4.11;100.00
20077;BME280;12348;42.710;23.378;2023-03-04T05:46:15;95109.69;;;3.97;100.00
20077;BME280;12348;42.710;23.378;2023-03-04T05:48:43;95108.44;;;4.05;100.00
20077;BME280;12348;42.710;23.378;2023-03-04T05:51:11;95120.03;;;4.16;100.00
20077;BME280;12348;42.710;23.378;2023-03-04T05:53:40;95119.63;;;4.29;100.00
20077;BME280;12348;42.710;23.378;2023-03-04T05:56:08;95114.47;;;4.44;100.00
20077;BME280;12348;42.710;23.378;2023-03-04T05:58:35;95128.97;;;4.53;100.00
20077;BME280;12348;42.710;23.378;2023-03-04T06:01:02;95127.50;;;4.68;100.00
20077;BME280;12348;42.710;23.378;2023-03-04T06:03:30;95131.88;;;4.79;100.00
20077;BME280;12348;42.710;23.378;2023-03-04T06:05:57;95125.97;;;4.77;100.00
20077;BME280;12348;42.710;23.378;2023-03-04T06:08:24;95127.88;;;4.81;100.00
20077;BME280;12348;42.710;23.378;2023-03-04T06:10:54;95129.53;;;4.82;100.00
20077;BME280;12348;42.710;23.378;2023-03-04T06:13:22;95130.75;;;5.02;100.00
20077;BME280;12348;42.710;23.378;2023-03-04T06:15:53;95135.69;;;5.20;100.00
20077;BME280;12348;42.710;23.378;2023-03-04T06:18:19;95133.06;;;5.25;100.00
20077;BME280;12348;42.710;23.378;2023-03-04T06:20:46;95138.66;;;5.24;100.00
20077;BME280;12348;42.710;23.378;2023-03-04T06:23:13;95129.06;;;5.23;100.00
20077;BME280;12348;42.710;23.378;2023-03-04T06:25:40;95134.13;;;5.24;100.00
20077;BME280;12348;42.710;23.378;2023-03-04T06:28:08;95137.31;;;5.26;100.00
20077;BME280;12348;42.710;23.378;2023-03-04T06:30:35;95141.16;;;5.35;100.00
20077;BME280;12348;42.710;23.378;2023-03-04T06:33:02;95141.81;;;5.53;100.00
20077;BME280;12348;42.710;23.378;2023-03-04T06:35:28;95133.41;;;5.81;100.00
20077;BME280;12348;42.710;23.378;2023-03-04T06:37:56;95138.47;;;6.25;100.00
20077;BME280;12348;42.710;23.378;2023-03-04T06:40:23;95138.75;;;6.34;100.00
20077;BME280;12348;42.710;23.378;2023-03-04T06:42:49;95140.47;;;6.71;100.00
20077;BME280;12348;42.710;23.378;2023-03-04T06:45:18;95137.00;;;6.91;100.00
20077;BME280;12348;42.710;23.378;2023-03-04T06:47:44;95127.13;;;7.27;100.00
20077;BME280;12348;42.710;23.378;2023-03-04T06:50:12;95133.00;;;7.49;100.00
20077;BME280;12348;42.710;23.378;2023-03-04T06:52:39;95137.28;;;7.66;100.00
20077;BME280;12348;42.710;23.378;2023-03-04T06:55:07;95142.06;;;7.69;100.00
20077;BME280;12348;42.710;23.378;2023-03-04T06:57:34;95146.59;;;7.84;100.00
20077;BME280;12348;42.710;23.378;2023-03-04T07:00:02;95142.38;;;7.57;100.00
20077;BME280;12348;42.710;23.378;2023-03-04T07:02:30;95147.47;;;7.53;100.00
20077;BME280;12348;42.710;23.378;2023-03-04T07:04:57;95144.00;;;7.22;100.00
20077;BME280;12348;42.710;23.378;2023-03-04T07:07:24;95150.16;;;7.23;100.00
20077;BME280;12348;42.710;23.378;2023-03-04T07:09:51;95153.38;;;7.20;100.00
20077;BME280;12348;42.710;23.378;2023-03-04T07:12:18;95156.59;;;7.22;100.00
20077;BME280;12348;42.710;23.378;2023-03-04T07:14:45;95152.31;;;7.26;100.00
20077;BME280;12348;42.710;23.378;2023-03-04T07:17:12;95153.09;;;7.26;100.00
20077;BME280;12348;42.710;23.378;2023-03-04T07:19:40;95147.47;;;7.23;100.00
20077;BME280;12348;42.710;23.378;2023-03-04T07:22:07;95147.75;;;7.06;100.00
20077;BME280;12348;42.710;23.378;2023-03-04T07:24:34;95160.06;;;7.07;100.00
20077;BME280;12348;42.710;23.378;2023-03-04T07:27:00;95157.66;;;7.11;100.00
20077;BME280;12348;42.710;23.378;2023-03-04T07:29:27;95156.59;;;7.22;100.00
20077;BME280;12348;42.710;23.378;2023-03-04T07:31:54;95153.09;;;7.37;100.00
20077;BME280;12348;42.710;23.378;2023-03-04T07:34:21;95147.47;;;7.59;100.00
20077;BME280;12348;42.710;23.378;2023-03-04T07:36:49;95150.13;;;7.74;100.00
20077;BME280;12348;42.710;23.378;2023-03-04T07:39:16;95151.03;;;8.34;100.00
20077;BME280;12348;42.710;23.378;2023-03-04T07:41:43;95153.97;;;8.48;100.00
20077;BME280;12348;42.710;23.378;2023-03-04T07:44:11;95152.56;;;8.56;100.00
20077;BME280;12348;42.710;23.378;2023-03-04T07:46:38;95148.00;;;8.51;100.00
20077;BME280;12348;42.710;23.378;2023-03-04T07:49:05;95147.09;;;8.76;100.00
20077;BME280;12348;42.710;23.378;2023-03-04T07:51:31;95154.47;;;8.55;100.00
20077;BME280;12348;42.710;23.378;2023-03-04T07:54:00;95149.38;;;8.43;100.00
20077;BME280;12348;42.710;23.378;2023-03-04T07:56:29;95141.91;;;8.40;100.00
20077;BME280;12348;42.710;23.378;2023-03-04T07:58:56;95144.06;;;8.28;100.00
20077;BME280;12348;42.710;23.378;2023-03-04T08:01:25;95144.06;;;8.38;100.00
20077;BME280;12348;42.710;23.378;2023-03-04T08:03:52;95147.81;;;8.37;100.00
20077;BME280;12348;42.710;23.378;2023-03-04T08:06:21;95146.16;;;8.52;100.00
20077;BME280;12348;42.710;23.378;2023-03-04T08:08:48;95150.66;;;8.66;100.00
20077;BME280;12348;42.710;23.378;2023-03-04T08:11:19;95140.66;;;8.72;100.00
20077;BME280;12348;42.710;23.378;2023-03-04T08:13:46;95145.44;;;8.20;100.00
20077;BME280;12348;42.710;23.378;2023-03-04T08:16:15;95138.06;;;8.57;100.00
20077;BME280;12348;42.710;23.378;2023-03-04T08:18:42;95142.16;;;8.88;100.00
20077;BME280;12348;42.710;23.378;2023-03-04T08:21:10;95133.00;;;8.50;100.00
20077;BME280;12348;42.710;23.378;2023-03-04T08:23:38;95137.94;;;8.82;100.00
20077;BME280;12348;42.710;23.378;2023-03-04T08:26:08;95141.22;;;8.74;100.00
20077;BME280;12348;42.710;23.378;2023-03-04T08:28:37;95138.91;;;8.52;100.00
20077;BME280;12348;42.710;23.378;2023-03-04T08:31:04;95134.66;;;8.41;100.00
20077;BME280;12348;42.710;23.378;2023-03-04T08:33:31;95140.88;;;8.21;100.00
20077;BME280;12348;42.710;23.378;2023-03-04T08:35:58;95135.00;;;8.14;100.00
20077;BME280;12348;42.710;23.378;2023-03-04T08:38:25;95131.25;;;8.15;100.00
20077;BME280;12348;42.710;23.378;2023-03-04T08:40:52;95140.94;;;8.11;100.00
20077;BME280;12348;42.710;23.378;2023-03-04T08:43:19;95137.75;;;7.93;100.00
20077;BME280;12348;42.710;23.378;2023-03-04T08:45:48;95135.16;;;7.42;100.00
20077;BME280;12348;42.710;23.378;2023-03-04T08:48:15;95132.97;;;7.65;100.00
20077;BME280;12348;42.710;23.378;2023-03-04T08:50:43;95131.06;;;7.86;100.00
20077;BME280;12348;42.710;23.378;2023-03-04T08:53:10;95128.63;;;7.99;100.00
20077;BME280;12348;42.710;23.378;2023-03-04T08:55:37;95128.06;;;8.08;100.00
20077;BME280;12348;42.710;23.378;2023-03-04T08:58:05;95136.00;;;8.38;100.00
20077;BME280;12348;42.710;23.378;2023-03-04T09:00:32;95129.56;;;8.39;100.00
20077;BME280;12348;42.710;23.378;2023-03-04T09:03:03;95129.22;;;8.56;100.00
20077;BME280;12348;42.710;23.378;2023-03-04T09:05:31;95128.25;;;8.81;100.00
20077;BME280;12348;42.710;23.378;2023-03-04T09:07:58;95118.28;;;8.42;100.00
20077;BME280;12348;42.710;23.378;2023-03-04T09:10:25;95121.47;;;8.94;100.00
20077;BME280;12348;42.710;23.378;2023-03-04T09:12:52;95125.16;;;8.64;100.00
20077;BME280;12348;42.710;23.378;2023-03-04T09:15:19;95120.50;;;8.80;100.00
20077;BME280;12348;42.710;23.378;2023-03-04T09:17:46;95118.25;;;8.92;100.00
20077;BME280;12348;42.710;23.378;2023-03-04T09:20:14;95113.28;;;8.70;100.00
20077;BME280;12348;42.710;23.378;2023-03-04T09:22:41;95105.22;;;8.70;100.00
20077;BME280;12348;42.710;23.378;2023-03-04T09:25:10;95115.31;;;8.88;100.00
20077;BME280;12348;42.710;23.378;2023-03-04T09:27:39;95112.28;;;8.61;100.00
20077;BME280;12348;42.710;23.378;2023-03-04T09:30:07;95110.09;;;9.07;100.00
20077;BME280;12348;42.710;23.378;2023-03-04T09:32:36;95102.03;;;9.41;100.00
20077;BME280;12348;42.710;23.378;2023-03-04T09:35:03;95108.38;;;9.51;100.00
20077;BME280;12348;42.710;23.378;2023-03-04T09:37:31;95108.16;;;9.76;100.00
20077;BME280;12348;42.710;23.378;2023-03-04T09:39:58;95088.44;;;9.86;100.00
20077;BME280;12348;42.710;23.378;2023-03-04T09:42:29;95099.28;;;9.76;100.00
20077;BME280;12348;42.710;23.378;2023-03-04T09:44:58;95095.69;;;10.09;100.00
20077;BME280;12348;42.710;23.378;2023-03-04T09:47:27;95089.50;;;10.09;100.00
20077;BME280;12348;42.710;23.378;2023-03-04T09:49:57;95092.53;;;10.26;100.00
20077;BME280;12348;42.710;23.378;2023-03-04T09:52:32;95091.97;;;10.29;100.00
20077;BME280;12348;42.710;23.378;2023-03-04T09:55:14;95091.13;;;10.53;100.00
20077;BME280;12348;42.710;23.378;2023-03-04T09:57:46;95083.66;;;10.87;100.00
20077;BME280;12348;42.710;23.378;2023-03-04T10:00:18;95083.41;;;11.03;100.00
20077;BME280;12348;42.710;23.378;2023-03-04T10:03:01;95079.19;;;10.97;100.00
20077;BME280;12348;42.710;23.378;2023-03-04T10:05:31;95084.91;;;11.09;96.73
20077;BME280;12348;42.710;23.378;2023-03-04T10:08:06;95084.31;;;10.79;99.79
20077;BME280;12348;42.710;23.378;2023-03-04T10:10:40;95084.81;;;10.81;97.26
20077;BME280;12348;42.710;23.378;2023-03-04T10:13:14;95072.06;;;11.06;94.86
20077;BME280;12348;42.710;23.378;2023-03-04T10:15:44;95068.00;;;11.55;91.94
20077;BME280;12348;42.710;23.378;2023-03-04T10:18:19;95068.69;;;12.07;87.77
20077;BME280;12348;42.710;23.378;2023-03-04T10:20:52;95065.75;;;12.45;87.61
20077;BME280;12348;42.710;23.378;2023-03-04T10:23:24;95061.41;;;12.57;83.46
20077;BME280;12348;42.710;23.378;2023-03-04T10:25:52;95057.56;;;12.72;82.05
20077;BME280;12348;42.710;23.378;2023-03-04T10:28:23;95055.78;;;13.04;80.95
20077;BME280;12348;42.710;23.378;2023-03-04T10:30:56;95055.84;;;13.13;80.22
20077;BME280;12348;42.710;23.378;2023-03-04T10:33:27;95045.53;;;13.37;78.22
20077;BME280;12348;42.710;23.378;2023-03-04T10:36:00;95047.03;;;13.74;76.65
20077;BME280;12348;42.710;23.378;2023-03-04T10:38:30;95038.97;;;13.61;76.50
20077;BME280;12348;42.710;23.378;2023-03-04T10:40:59;95028.09;;;13.83;75.53
20077;BME280;12348;42.710;23.378;2023-03-04T10:43:26;95023.97;;;13.86;75.96
20077;BME280;12348;42.710;23.378;2023-03-04T10:45:56;95022.06;;;13.86;74.32
20077;BME280;12348;42.710;23.378;2023-03-04T10:48:26;95025.38;;;14.31;72.77
20077;BME280;12348;42.710;23.378;2023-03-04T10:51:10;95021.81;;;14.79;72.02
20077;BME280;12348;42.710;23.378;2023-03-04T10:53:41;95013.19;;;15.03;70.37
20077;BME280;12348;42.710;23.378;2023-03-04T10:56:30;95009.50;;;14.82;70.74
20077;BME280;12348;42.710;23.378;2023-03-04T10:59:33;95005.38;;;14.67;72.28
20077;BME280;12348;42.710;23.378;2023-03-04T11:02:05;95004.59;;;14.84;70.30
20077;BME280;12348;42.710;23.378;2023-03-04T11:04:39;95001.38;;;14.82;70.84
20077;BME280;12348;42.710;23.378;2023-03-04T11:07:08;94994.00;;;15.26;69.70
20077;BME280;12348;42.710;23.378;2023-03-04T11:09:35;94992.06;;;15.44;68.70
20077;BME280;12348;42.710;23.378;2023-03-04T11:12:10;94984.50;;;14.94;68.62
20077;BME280;12348;42.710;23.378;2023-03-04T11:14:40;94981.44;;;14.52;71.13
20077;BME280;12348;42.710;23.378;2023-03-04T11:17:20;94980.13;;;14.41;72.27
20077;BME280;12348;42.710;23.378;2023-03-04T11:19:51;94964.19;;;14.48;70.55
20077;BME280;12348;42.710;23.378;2023-03-04T11:22:20;94970.59;;;14.52;70.59
20077;BME280;12348;42.710;23.378;2023-03-04T11:24:55;94959.78;;;14.61;70.40
20077;BME280;12348;42.710;23.378;2023-03-04T11:27:28;94959.63;;;14.66;70.62
20077;BME280;12348;42.710;23.378;2023-03-04T11:30:08;94952.56;;;14.30;73.93
20077;BME280;12348;42.710;23.378;2023-03-04T11:32:53;94951.38;;;13.96;75.53
20077;BME280;12348;42.710;23.378;2023-03-04T11:35:25;94949.13;;;14.64;71.91
20077;BME280;12348;42.710;23.378;2023-03-04T11:37:59;94940.66;;;14.57;69.63
20077;BME280;12348;42.710;23.378;2023-03-04T11:40:34;94935.25;;;14.57;70.71
20077;BME280;12348;42.710;23.378;2023-03-04T11:43:04;94936.50;;;14.77;68.22
20077;BME280;12348;42.710;23.378;2023-03-04T11:45:49;94934.44;;;14.57;68.58
20077;BME280;12348;42.710;23.378;2023-03-04T11:48:36;94932.81;;;14.21;70.73
20077;BME280;12348;42.710;23.378;2023-03-04T11:51:12;94931.38;;;14.41;70.94
20077;BME280;12348;42.710;23.378;2023-03-04T11:54:00;94928.03;;;13.52;72.60
20077;BME280;12348;42.710;23.378;2023-03-04T11:56:31;94931.22;;;13.54;72.85
20077;BME280;12348;42.710;23.378;2023-03-04T11:59:31;94918.66;;;13.58;73.89
20077;BME280;12348;42.710;23.378;2023-03-04T12:02:20;94919.94;;;13.61;74.78
20077;BME280;12348;42.710;23.378;2023-03-04T12:05:08;94916.53;;;13.38;75.80
20077;BME280;12348;42.710;23.378;2023-03-04T12:07:47;94923.75;;;12.97;75.47
20077;BME280;12348;42.710;23.378;2023-03-04T12:10:24;94920.25;;;12.07;80.01
20077;BME280;12348;42.710;23.378;2023-03-04T12:13:18;94912.91;;;12.21;81.29
20077;BME280;12348;42.710;23.378;2023-03-04T12:15:56;94909.34;;;12.34;80.74
20077;BME280;12348;42.710;23.378;2023-03-04T12:18:35;94911.50;;;12.46;80.90
20077;BME280;12348;42.710;23.378;2023-03-04T12:21:16;94907.50;;;12.21;83.40
20077;BME280;12348;42.710;23.378;2023-03-04T12:24:07;94903.22;;;12.43;82.16
20077;BME280;12348;42.710;23.378;2023-03-04T12:26:37;94895.47;;;12.27;82.59
20077;BME280;12348;42.710;23.378;2023-03-04T12:29:10;94895.31;;;11.87;85.28
20077;BME280;12348;42.710;23.378;2023-03-04T12:31:40;94893.09;;;11.89;84.22
20077;BME280;12348;42.710;23.378;2023-03-04T12:37:44;94887.25;;;12.10;86.39
20077;BME280;12348;42.710;23.378;2023-03-04T12:40:25;94894.91;;;11.80;84.49
20077;BME280;12348;42.710;23.378;2023-03-04T12:43:05;94881.22;;;11.63;86.38
20077;BME280;12348;42.710;23.378;2023-03-04T12:45:40;94885.03;;;11.34;87.34
20077;BME280;12348;42.710;23.378;2023-03-04T12:48:21;94874.38;;;11.43;87.46
20077;BME280;12348;42.710;23.378;2023-03-04T12:50:59;94873.84;;;11.27;88.60
20077;BME280;12348;42.710;23.378;2023-03-04T12:53:34;94873.25;;;11.44;87.81
20077;BME280;12348;42.710;23.378;2023-03-04T12:56:04;94867.56;;;11.18;89.05
20077;BME280;12348;42.710;23.378;2023-03-04T12:58:32;94869.66;;;11.49;89.22
20077;BME280;12348;42.710;23.378;2023-03-04T13:01:05;94869.97;;;11.47;87.36
20077;BME280;12348;42.710;23.378;2023-03-04T13:03:40;94861.69;;;11.44;87.59
20077;BME280;12348;42.710;23.378;2023-03-04T13:06:20;94857.59;;;11.32;86.35